createdAt,value
2022-11-02T00:04:08.178Z,101255.53
2022-11-02T00:09:13.214Z,101251.88
2022-11-02T00:14:16.957Z,101258.34
2022-11-02T00:19:21.174Z,101240.94
2022-11-02T00:24:26.450Z,101249.59
2022-11-02T00:29:33.845Z,101258.06
2022-11-02T00:34:37.906Z,101264.16
2022-11-02T00:39:43.259Z,101248.53
2022-11-02T00:44:47.070Z,101257.94
2022-11-02T00:49:50.783Z,101255.03
2022-11-02T00:54:56.217Z,101266.09
2022-11-02T01:00:00.354Z,101274.31
2022-11-02T01:05:04.206Z,101271.72
2022-11-02T01:10:11.409Z,101288.94
2022-11-02T01:15:15.985Z,101287.84
2022-11-02T01:20:19.694Z,101310.31
2022-11-02T01:25:24.764Z,101305.94
2022-11-02T01:30:28.454Z,101298.22
2022-11-02T01:35:32.151Z,101284.31
2022-11-02T01:40:38.989Z,101301.66
2022-11-02T01:45:42.670Z,101307.72
2022-11-02T01:50:47.327Z,101312.44
2022-11-02T01:55:53.206Z,101299.22
2022-11-02T02:00:57.473Z,101297.38
2022-11-02T02:06:07.826Z,101301.13
2022-11-02T02:11:34.061Z,101302.16
2022-11-02T02:16:51.143Z,101308.84
2022-11-02T02:22:11.811Z,101308.91
2022-11-02T02:27:21.467Z,101315.03
2022-11-02T02:32:34.697Z,101319.34
2022-11-02T02:37:45.897Z,101321.84
2022-11-02T02:42:55.533Z,101309.03
2022-11-02T02:48:05.684Z,101307.13
2022-11-02T02:53:11.100Z,101312.59
2022-11-02T02:58:21.126Z,101316.34
2022-11-02T03:03:28.349Z,101322.41
2022-11-02T03:08:34.136Z,101323.03
2022-11-02T03:13:51.628Z,101319.09
2022-11-02T03:19:12.634Z,101336.72
2022-11-02T03:24:21.016Z,101339.59
2022-11-02T03:29:29.657Z,101328.94
2022-11-02T03:34:37.466Z,101343.62
2022-11-02T03:39:47.013Z,101345.03
2022-11-02T03:44:57.243Z,101366.72
2022-11-02T03:50:06.135Z,101360.78
2022-11-02T03:55:12.820Z,101347.84
2022-11-02T04:00:19.527Z,101371.59
2022-11-02T04:05:33.064Z,101390.56
2022-11-02T04:10:57.447Z,101385.75
2022-11-02T04:16:01.287Z,101385.72
2022-11-02T04:21:06.693Z,101398.72
2022-11-02T04:26:10.424Z,101406.72
2022-11-02T04:31:15.550Z,101411.97
2022-11-02T04:36:20.785Z,101440.63
2022-11-02T04:41:45.272Z,101440.41
2022-11-02T04:46:52.727Z,101445.53
2022-11-02T04:51:58.146Z,101454.06
2022-11-02T04:57:02.610Z,101474.84
2022-11-02T05:02:06.960Z,101488.66
2022-11-02T05:07:13.462Z,101475.06
2022-11-02T05:12:17.341Z,101499.91
2022-11-02T05:17:21.281Z,101518.75
2022-11-02T05:22:26.503Z,101525.31
2022-11-02T05:27:30.291Z,101531.47
2022-11-02T05:32:34.227Z,101542.34
2022-11-02T05:37:40.084Z,101555.53
2022-11-02T05:42:44.188Z,101553.59
2022-11-02T05:47:48.237Z,101568.66
2022-11-02T05:52:53.241Z,101586.47
2022-11-02T05:57:57.079Z,101588.00
2022-11-02T06:03:00.986Z,101595.63
2022-11-02T06:08:06.557Z,101601.22
2022-11-02T06:13:10.911Z,101609.63
2022-11-02T06:18:14.624Z,101621.19
2022-11-02T06:23:19.597Z,101637.19
2022-11-02T06:28:23.789Z,101635.72
2022-11-02T06:33:29.656Z,101647.13
2022-11-02T06:38:35.038Z,101656.06
2022-11-02T06:43:39.050Z,101674.91
2022-11-02T06:48:42.723Z,101686.12
2022-11-02T06:53:47.765Z,101703.16
2022-11-02T06:58:51.460Z,101708.34
2022-11-02T07:03:55.142Z,101720.75
2022-11-02T07:09:00.156Z,101741.91
2022-11-02T07:14:03.891Z,101753.31
2022-11-02T07:19:07.585Z,101765.00
2022-11-02T07:24:12.700Z,101774.09
2022-11-02T07:29:16.413Z,101777.47
2022-11-02T07:34:20.136Z,101787.47
2022-11-02T07:39:26.202Z,101779.63
2022-11-02T07:44:30.992Z,101795.97
2022-11-02T07:49:34.682Z,101805.88
2022-11-02T07:54:44.428Z,101818.00
2022-11-02T07:59:48.517Z,101814.16
2022-11-02T08:04:52.202Z,101826.81
2022-11-02T08:09:57.158Z,101831.56
2022-11-02T08:15:06.323Z,101836.34
2022-11-02T08:20:11.965Z,101835.09
2022-11-02T08:25:17.063Z,101844.84
2022-11-02T08:30:20.773Z,101842.94
2022-11-02T08:35:24.457Z,101845.22
2022-11-02T08:40:29.550Z,101856.38
2022-11-02T08:46:08.377Z,101859.91
2022-11-02T08:50:58.779Z,101864.31
2022-11-02T08:56:03.986Z,101872.22
2022-11-02T09:01:07.654Z,101882.75
2022-11-02T09:06:11.310Z,101882.38
2022-11-02T09:11:16.432Z,101886.50
2022-11-02T09:16:20.198Z,101891.88
2022-11-02T09:21:23.884Z,101892.59
2022-11-02T09:26:28.899Z,101885.06
2022-11-02T09:31:32.588Z,101890.97
2022-11-02T09:36:36.282Z,101896.34
2022-11-02T09:41:47.532Z,101896.03
2022-11-02T09:47:28.066Z,101910.09
2022-11-02T09:52:22.508Z,101912.91
2022-11-02T09:57:33.119Z,101917.41
2022-11-02T10:02:52.170Z,101928.91
2022-11-02T10:08:21.155Z,101926.75
2022-11-02T10:13:35.602Z,101938.56
2022-11-02T10:18:41.526Z,101917.34
2022-11-02T10:23:51.071Z,101940.31
2022-11-02T10:29:00.056Z,101939.31
2022-11-02T10:34:18.297Z,101927.91
2022-11-02T10:39:31.344Z,101930.50
2022-11-02T10:44:51.751Z,101940.16
2022-11-02T10:50:36.411Z,101941.50
2022-11-02T10:55:50.695Z,101951.16
2022-11-02T11:01:06.498Z,101947.34
2022-11-02T11:06:13.558Z,101956.63
2022-11-02T11:11:22.430Z,101947.44
2022-11-02T11:16:36.513Z,101950.09
2022-11-02T11:21:42.354Z,101949.56
2022-11-02T11:26:46.049Z,101944.06
2022-11-02T11:31:51.203Z,101931.19
2022-11-02T11:37:05.051Z,101920.97
2022-11-02T11:42:17.511Z,101931.53
2022-11-02T11:47:28.609Z,101938.53
2022-11-02T11:52:34.572Z,101949.00
2022-11-02T12:02:44.868Z,101947.41
2022-11-02T12:08:15.277Z,101939.16
2022-11-02T12:13:30.340Z,101931.34
2022-11-02T12:18:48.568Z,101920.47
2022-11-02T12:24:08.693Z,101896.44
2022-11-02T12:29:36.907Z,101896.97
2022-11-02T12:40:42.919Z,101897.28
2022-11-02T12:45:55.161Z,101896.28
2022-11-02T12:51:06.031Z,101889.69
2022-11-02T12:56:17.722Z,101877.94
2022-11-02T13:01:28.991Z,101872.88
2022-11-02T13:06:41.028Z,101864.44
2022-11-02T13:11:48.146Z,101855.59
2022-11-02T13:16:58.401Z,101859.63
2022-11-02T13:22:04.861Z,101853.50
2022-11-02T13:27:36.794Z,101847.44
2022-11-02T13:32:48.204Z,101840.28
2022-11-02T13:37:59.773Z,101841.34
2022-11-02T13:43:40.701Z,101837.97
2022-11-02T13:48:57.503Z,101859.12
2022-11-02T13:54:07.107Z,101835.75
2022-11-02T13:59:21.539Z,101841.62
2022-11-02T14:04:26.768Z,101825.09
2022-11-02T14:09:36.789Z,101821.13
2022-11-02T14:14:40.546Z,101819.44
2022-11-02T14:19:56.874Z,101817.78
2022-11-02T14:25:18.899Z,101813.50
2022-11-02T14:30:44.114Z,101805.88
2022-11-02T14:35:58.615Z,101802.59
2022-11-02T14:41:19.455Z,101788.06
2022-11-02T14:46:39.788Z,101782.22
2022-11-02T14:51:44.841Z,101788.94
2022-11-02T14:56:56.451Z,101772.91
2022-11-02T15:02:02.951Z,101773.88
2022-11-02T15:07:07.277Z,101784.22
2022-11-02T15:12:30.447Z,101760.97
2022-11-02T15:17:54.490Z,101760.53
2022-11-02T15:23:09.730Z,101758.34
2022-11-02T15:28:20.550Z,101762.37
2022-11-02T15:33:37.510Z,101747.09
2022-11-02T15:38:41.523Z,101762.88
2022-11-02T15:44:10.001Z,101753.66
2022-11-02T15:49:30.379Z,101759.53
2022-11-02T15:55:04.651Z,101749.69
2022-11-02T16:00:17.810Z,101742.47
2022-11-02T16:05:23.974Z,101739.06
2022-11-02T16:10:29.839Z,101735.81
2022-11-02T16:15:35.184Z,101723.56
2022-11-02T16:20:39.944Z,101721.87
2022-11-02T16:25:46.765Z,101722.97
2022-11-02T16:31:06.488Z,101716.38
2022-11-02T16:36:17.461Z,101703.25
2022-11-02T16:41:21.513Z,101704.47
2022-11-02T16:46:32.490Z,101701.34
2022-11-02T16:51:36.585Z,101700.47
2022-11-02T16:56:40.388Z,101701.69
2022-11-02T17:01:45.623Z,101705.88
2022-11-02T17:06:51.738Z,101705.50
2022-11-02T17:11:58.800Z,101717.16
2022-11-02T17:17:08.017Z,101708.81
2022-11-02T17:22:15.339Z,101706.78
2022-11-02T17:27:25.588Z,101704.56
2022-11-02T17:32:30.663Z,101706.66
2022-11-02T17:37:34.631Z,101701.81
2022-11-02T17:42:55.905Z,101706.66
2022-11-02T17:48:02.376Z,101698.19
2022-11-02T17:53:07.306Z,101685.59
2022-11-02T17:58:13.710Z,101682.06
2022-11-02T18:03:22.351Z,101672.19
2022-11-02T18:08:28.053Z,101671.69
2022-11-02T18:13:31.770Z,101669.12
2022-11-02T18:18:36.862Z,101665.41
2022-11-02T18:23:41.465Z,101663.09
2022-11-02T18:28:45.153Z,101672.16
2022-11-02T18:33:52.444Z,101657.72
2022-11-02T18:38:56.166Z,101656.78
2022-11-02T18:44:04.826Z,101657.09
2022-11-02T18:49:11.986Z,101642.00
2022-11-02T18:54:16.878Z,101631.31
2022-11-02T18:59:20.649Z,101620.56
2022-11-02T19:04:25.873Z,101611.16
2022-11-02T19:09:31.617Z,101592.91
2022-11-02T19:14:37.123Z,101577.94
2022-11-02T19:19:43.303Z,101572.78
2022-11-02T19:24:47.303Z,101569.69
2022-11-02T19:29:51.648Z,101557.06
2022-11-02T19:34:56.687Z,101544.09
2022-11-02T19:40:00.408Z,101524.03
2022-11-02T19:45:04.310Z,101525.53
2022-11-02T19:50:09.561Z,101518.13
2022-11-02T19:55:13.186Z,101534.94
2022-11-02T20:00:17.761Z,101520.53
2022-11-02T20:05:22.845Z,101521.25
2022-11-02T20:10:26.609Z,101514.19
2022-11-02T20:15:30.280Z,101515.28
2022-11-02T20:20:35.454Z,101513.72
2022-11-02T20:25:39.143Z,101503.28
2022-11-02T20:30:43.350Z,101512.19
2022-11-02T20:35:48.701Z,101490.84
2022-11-02T20:40:52.450Z,101501.16
2022-11-02T20:51:27.878Z,101493.00
2022-11-02T20:56:31.622Z,101494.56
2022-11-02T21:01:35.888Z,101480.56
2022-11-02T21:06:41.079Z,101481.59
2022-11-02T21:12:02.234Z,101475.00
2022-11-02T21:17:06.752Z,101476.78
2022-11-02T21:22:12.859Z,101477.59
2022-11-02T21:27:20.492Z,101462.84
2022-11-02T21:32:25.331Z,101460.28
2022-11-02T21:37:30.330Z,101444.81
2022-11-02T21:42:33.989Z,101445.47
2022-11-02T21:47:37.650Z,101435.75
2022-11-02T21:52:45.169Z,101436.47
2022-11-02T21:57:49.123Z,101426.28
2022-11-02T22:02:52.876Z,101426.91
2022-11-02T22:08:15.641Z,101412.13
2022-11-02T22:13:34.569Z,101411.28
2022-11-02T22:18:38.526Z,101406.72
2022-11-02T22:23:45.454Z,101397.22
2022-11-02T22:28:49.843Z,101392.34
2022-11-02T22:33:55.086Z,101391.03
2022-11-02T22:39:01.592Z,101377.69
2022-11-02T22:44:06.914Z,101381.44
2022-11-02T22:49:12.367Z,101368.22
2022-11-02T22:54:19.097Z,101357.12
2022-11-02T22:59:22.811Z,101344.06
2022-11-02T23:04:26.555Z,101335.94
2022-11-02T23:09:31.599Z,101334.22
2022-11-02T23:14:35.308Z,101318.81
2022-11-02T23:19:39.352Z,101320.41
2022-11-02T23:25:03.767Z,101316.72
2022-11-02T23:30:26.050Z,101307.87
2022-11-02T23:35:47.299Z,101298.63
2022-11-02T23:40:55.639Z,101304.94
2022-11-02T23:45:59.288Z,101307.97
2022-11-02T23:51:20.727Z,101294.34
2022-11-02T23:56:52.270Z,101297.69
